sensor_id;sensor_type;location;lat;lon;timestamp;temperature;humidity
67862;DHT22;54665;51.462;6.698;2023-04-24T00:01:47;11.90;73.27
67862;DHT22;54665;51.462;6.698;2023-04-24T00:04:12;11.98;73.86
67862;DHT22;54665;51.462;6.698;2023-04-24T00:06:39;12.00;73.25
67862;DHT22;54665;51.462;6.698;2023-04-24T00:09:08;11.91;72.69
67862;DHT22;54665;51.462;6.698;2023-04-24T00:11:35;12.04;72.87
67862;DHT22;54665;51.462;6.698;2023-04-24T00:14:00;12.02;73.71
67862;DHT22;54665;51.462;6.698;2023-04-24T00:16:26;11.94;73.93
67862;DHT22;54665;51.462;6.698;2023-04-24T00:18:51;11.93;73.38
67862;DHT22;54665;51.462;6.698;2023-04-24T00:21:17;11.84;73.39
67862;DHT22;54665;51.462;6.698;2023-04-24T00:23:43;12.08;73.03
67862;DHT22;54665;51.462;6.698;2023-04-24T00:26:09;11.84;72.72
67862;DHT22;54665;51.462;6.698;2023-04-24T00:28:34;11.84;71.96
67862;DHT22;54665;51.462;6.698;2023-04-24T00:31:00;11.81;72.49
67862;DHT22;54665;51.462;6.698;2023-04-24T00:33:25;11.76;72.05
67862;DHT22;54665;51.462;6.698;2023-04-24T00:35:51;11.83;72.70
67862;DHT22;54665;51.462;6.698;2023-04-24T00:38:16;11.66;72.10
67862;DHT22;54665;51.462;6.698;2023-04-24T00:40:42;11.57;72.45
67862;DHT22;54665;51.462;6.698;2023-04-24T00:43:07;11.52;73.06
67862;DHT22;54665;51.462;6.698;2023-04-24T00:45:33;11.55;72.99
67862;DHT22;54665;51.462;6.698;2023-04-24T00:48:00;11.32;73.61
67862;DHT22;54665;51.462;6.698;2023-04-24T00:50:25;11.22;73.89
67862;DHT22;54665;51.462;6.698;2023-04-24T00:52:51;11.32;74.19
67862;DHT22;54665;51.462;6.698;2023-04-24T00:55:17;11.38;74.39
67862;DHT22;54665;51.462;6.698;2023-04-24T00:57:44;11.32;74.28
67862;DHT22;54665;51.462;6.698;2023-04-24T01:00:10;11.28;74.72
67862;DHT22;54665;51.462;6.698;2023-04-24T01:02:40;11.23;74.31
67862;DHT22;54665;51.462;6.698;2023-04-24T01:05:11;11.04;74.96
67862;DHT22;54665;51.462;6.698;2023-04-24T01:07:39;11.12;74.76
67862;DHT22;54665;51.462;6.698;2023-04-24T01:10:07;10.99;75.72
67862;DHT22;54665;51.462;6.698;2023-04-24T01:12:33;10.97;75.50
67862;DHT22;54665;51.462;6.698;2023-04-24T01:14:58;10.88;75.38
67862;DHT22;54665;51.462;6.698;2023-04-24T01:17:24;10.79;75.89
67862;DHT22;54665;51.462;6.698;2023-04-24T01:19:49;10.84;76.34
67862;DHT22;54665;51.462;6.698;2023-04-24T01:22:15;10.71;75.69
67862;DHT22;54665;51.462;6.698;2023-04-24T01:24:42;10.85;76.34
67862;DHT22;54665;51.462;6.698;2023-04-24T01:27:09;10.84;76.26
67862;DHT22;54665;51.462;6.698;2023-04-24T01:29:35;10.87;76.35
67862;DHT22;54665;51.462;6.698;2023-04-24T01:32:02;10.95;75.68
67862;DHT22;54665;51.462;6.698;2023-04-24T01:34:28;10.89;75.96
67862;DHT22;54665;51.462;6.698;2023-04-24T01:36:53;10.89;75.26
67862;DHT22;54665;51.462;6.698;2023-04-24T01:39:19;11.04;75.57
67862;DHT22;54665;51.462;6.698;2023-04-24T01:41:46;10.91;75.89
67862;DHT22;54665;51.462;6.698;2023-04-24T01:44:12;11.02;75.42
67862;DHT22;54665;51.462;6.698;2023-04-24T01:46:37;10.94;75.41
67862;DHT22;54665;51.462;6.698;2023-04-24T01:49:03;11.08;75.61
67862;DHT22;54665;51.462;6.698;2023-04-24T01:51:28;11.01;75.76
67862;DHT22;54665;51.462;6.698;2023-04-24T01:53:55;10.91;75.86
67862;DHT22;54665;51.462;6.698;2023-04-24T01:56:21;10.99;76.05
67862;DHT22;54665;51.462;6.698;2023-04-24T01:58:48;10.99;75.86
67862;DHT22;54665;51.462;6.698;2023-04-24T02:01:18;10.85;76.44
67862;DHT22;54665;51.462;6.698;2023-04-24T02:03:46;10.87;76.39
67862;DHT22;54665;51.462;6.698;2023-04-24T02:06:12;11.04;76.25
67862;DHT22;54665;51.462;6.698;2023-04-24T02:08:37;11.08;76.08
67862;DHT22;54665;51.462;6.698;2023-04-24T02:11:03;11.16;76.03
67862;DHT22;54665;51.462;6.698;2023-04-24T02:13:30;10.99;75.82
67862;DHT22;54665;51.462;6.698;2023-04-24T02:15:55;10.84;76.66
67862;DHT22;54665;51.462;6.698;2023-04-24T02:18:22;10.91;76.61
67862;DHT22;54665;51.462;6.698;2023-04-24T02:20:49;10.84;76.39
67862;DHT22;54665;51.462;6.698;2023-04-24T02:23:14;10.95;76.16
67862;DHT22;54665;51.462;6.698;2023-04-24T02:25:40;10.95;76.05
67862;DHT22;54665;51.462;6.698;2023-04-24T02:28:05;10.95;76.09
67862;DHT22;54665;51.462;6.698;2023-04-24T02:30:33;10.78;76.74
67862;DHT22;54665;51.462;6.698;2023-04-24T02:32:58;10.87;76.75
67862;DHT22;54665;51.462;6.698;2023-04-24T02:35:23;10.88;76.47
67862;DHT22;54665;51.462;6.698;2023-04-24T02:37:49;10.74;76.69
67862;DHT22;54665;51.462;6.698;2023-04-24T02:40:14;10.71;76.57
67862;DHT22;54665;51.462;6.698;2023-04-24T02:42:40;10.74;76.44
67862;DHT22;54665;51.462;6.698;2023-04-24T02:45:05;10.82;76.67
67862;DHT22;54665;51.462;6.698;2023-04-24T02:47:31;10.85;76.37
67862;DHT22;54665;51.462;6.698;2023-04-24T02:49:56;10.87;76.23
67862;DHT22;54665;51.462;6.698;2023-04-24T02:52:22;10.77;76.30
67862;DHT22;54665;51.462;6.698;2023-04-24T02:54:47;10.84;76.60
67862;DHT22;54665;51.462;6.698;2023-04-24T02:57:13;10.88;76.46
67862;DHT22;54665;51.462;6.698;2023-04-24T02:59:40;10.77;76.40
67862;DHT22;54665;51.462;6.698;2023-04-24T03:02:06;10.81;77.06
67862;DHT22;54665;51.462;6.698;2023-04-24T03:04:31;10.74;76.93
67862;DHT22;54665;51.462;6.698;2023-04-24T03:06:57;10.89;76.87
67862;DHT22;54665;51.462;6.698;2023-04-24T03:09:23;10.65;76.42
67862;DHT22;54665;51.462;6.698;2023-04-24T03:11:49;10.68;76.68
67862;DHT22;54665;51.462;6.698;2023-04-24T03:14:15;10.82;76.82
67862;DHT22;54665;51.462;6.698;2023-04-24T03:16:41;10.75;76.66
67862;DHT22;54665;51.462;6.698;2023-04-24T03:19:06;10.88;76.85
67862;DHT22;54665;51.462;6.698;2023-04-24T03:21:36;11.07;76.29
67862;DHT22;54665;51.462;6.698;2023-04-24T03:24:07;10.89;76.82
67862;DHT22;54665;51.462;6.698;2023-04-24T03:26:33;10.91;76.52
67862;DHT22;54665;51.462;6.698;2023-04-24T03:29:15;10.95;76.60
67862;DHT22;54665;51.462;6.698;2023-04-24T03:31:41;10.91;76.60
67862;DHT22;54665;51.462;6.698;2023-04-24T03:34:06;10.85;76.84
67862;DHT22;54665;51.462;6.698;2023-04-24T03:36:32;10.87;76.82
67862;DHT22;54665;51.462;6.698;2023-04-24T03:38:58;10.72;76.63
67862;DHT22;54665;51.462;6.698;2023-04-24T03:41:29;10.82;76.57
67862;DHT22;54665;51.462;6.698;2023-04-24T03:44:02;10.79;75.98
67862;DHT22;54665;51.462;6.698;2023-04-24T03:46:29;10.85;76.49
67862;DHT22;54665;51.462;6.698;2023-04-24T03:48:58;10.77;76.74
67862;DHT22;54665;51.462;6.698;2023-04-24T03:51:28;10.98;76.31
67862;DHT22;54665;51.462;6.698;2023-04-24T03:54:00;10.89;76.16
67862;DHT22;54665;51.462;6.698;2023-04-24T03:56:28;10.79;76.19
67862;DHT22;54665;51.462;6.698;2023-04-24T03:58:54;10.92;76.07
67862;DHT22;54665;51.462;6.698;2023-04-24T04:01:19;11.04;75.53
67862;DHT22;54665;51.462;6.698;2023-04-24T04:03:59;10.99;75.87
67862;DHT22;54665;51.462;6.698;2023-04-24T04:06:26;10.98;75.95
67862;DHT22;54665;51.462;6.698;2023-04-24T04:08:53;11.08;75.78
67862;DHT22;54665;51.462;6.698;2023-04-24T04:11:18;10.72;76.31
67862;DHT22;54665;51.462;6.698;2023-04-24T04:13:45;10.72;76.17
67862;DHT22;54665;51.462;6.698;2023-04-24T04:16:13;10.84;76.48
67862;DHT22;54665;51.462;6.698;2023-04-24T04:18:39;10.74;76.15
67862;DHT22;54665;51.462;6.698;2023-04-24T04:21:06;10.91;76.29
67862;DHT22;54665;51.462;6.698;2023-04-24T04:23:31;10.91;75.96
67862;DHT22;54665;51.462;6.698;2023-04-24T04:26:14;10.72;75.64
67862;DHT22;54665;51.462;6.698;2023-04-24T04:29:18;10.75;76.29
67862;DHT22;54665;51.462;6.698;2023-04-24T04:31:44;10.68;76.71
67862;DHT22;54665;51.462;6.698;2023-04-24T04:34:12;10.69;76.23
67862;DHT22;54665;51.462;6.698;2023-04-24T04:36:40;10.77;75.91
67862;DHT22;54665;51.462;6.698;2023-04-24T04:39:23;10.65;76.35
67862;DHT22;54665;51.462;6.698;2023-04-24T04:41:58;10.82;75.84
67862;DHT22;54665;51.462;6.698;2023-04-24T04:44:27;10.91;75.53
67862;DHT22;54665;51.462;6.698;2023-04-24T04:46:53;10.91;75.38
67862;DHT22;54665;51.462;6.698;2023-04-24T04:49:26;10.77;75.60
67862;DHT22;54665;51.462;6.698;2023-04-24T04:51:53;10.84;75.61
67862;DHT22;54665;51.462;6.698;2023-04-24T04:54:19;10.89;75.32
67862;DHT22;54665;51.462;6.698;2023-04-24T04:56:45;10.85;75.14
67862;DHT22;54665;51.462;6.698;2023-04-24T04:59:10;10.91;75.02
67862;DHT22;54665;51.462;6.698;2023-04-24T05:01:38;10.79;75.08
67862;DHT22;54665;51.462;6.698;2023-04-24T05:04:05;10.82;75.07
67862;DHT22;54665;51.462;6.698;2023-04-24T05:06:31;10.72;75.54
67862;DHT22;54665;51.462;6.698;2023-04-24T05:08:56;10.77;75.45
67862;DHT22;54665;51.462;6.698;2023-04-24T05:11:30;10.63;76.48
67862;DHT22;54665;51.462;6.698;2023-04-24T05:13:57;10.56;77.05
67862;DHT22;54665;51.462;6.698;2023-04-24T05:16:31;10.68;76.96
67862;DHT22;54665;51.462;6.698;2023-04-24T05:18:57;10.34;76.46
67862;DHT22;54665;51.462;6.698;2023-04-24T05:21:28;10.54;76.43
67862;DHT22;54665;51.462;6.698;2023-04-24T05:23:54;10.53;77.13
67862;DHT22;54665;51.462;6.698;2023-04-24T05:26:38;10.64;77.66
67862;DHT22;54665;51.462;6.698;2023-04-24T05:29:06;10.46;78.61
67862;DHT22;54665;51.462;6.698;2023-04-24T05:31:32;10.43;78.97
67862;DHT22;54665;51.462;6.698;2023-04-24T05:33:58;10.43;78.97
67862;DHT22;54665;51.462;6.698;2023-04-24T05:36:23;10.43;79.12
67862;DHT22;54665;51.462;6.698;2023-04-24T05:38:49;10.51;78.81
67862;DHT22;54665;51.462;6.698;2023-04-24T05:41:14;10.65;78.22
67862;DHT22;54665;51.462;6.698;2023-04-24T05:43:40;10.58;78.67
67862;DHT22;54665;51.462;6.698;2023-04-24T05:46:06;10.61;78.27
67862;DHT22;54665;51.462;6.698;2023-04-24T05:48:31;10.72;77.57
67862;DHT22;54665;51.462;6.698;2023-04-24T05:51:00;10.68;77.97
67862;DHT22;54665;51.462;6.698;2023-04-24T05:53:25;10.50;78.97
67862;DHT22;54665;51.462;6.698;2023-04-24T05:55:51;10.37;80.60
67862;DHT22;54665;51.462;6.698;2023-04-24T05:58:17;10.34;80.95
67862;DHT22;54665;51.462;6.698;2023-04-24T06:00:46;10.19;81.80
67862;DHT22;54665;51.462;6.698;2023-04-24T06:03:12;10.07;83.09
67862;DHT22;54665;51.462;6.698;2023-04-24T06:05:37;9.97;83.47
67862;DHT22;54665;51.462;6.698;2023-04-24T06:08:03;9.93;83.42
67862;DHT22;54665;51.462;6.698;2023-04-24T06:10:33;9.99;83.87
67862;DHT22;54665;51.462;6.698;2023-04-24T06:12:59;9.89;83.96
67862;DHT22;54665;51.462;6.698;2023-04-24T06:15:28;10.02;84.25
67862;DHT22;54665;51.462;6.698;2023-04-24T06:17:57;10.21;84.17
67862;DHT22;54665;51.462;6.698;2023-04-24T06:20:23;10.23;84.24
67862;DHT22;54665;51.462;6.698;2023-04-24T06:22:48;10.29;83.87
67862;DHT22;54665;51.462;6.698;2023-04-24T06:25:14;10.29;83.45
67862;DHT22;54665;51.462;6.698;2023-04-24T06:27:39;10.30;83.43
67862;DHT22;54665;51.462;6.698;2023-04-24T06:30:07;10.00;83.76
67862;DHT22;54665;51.462;6.698;2023-04-24T06:32:33;10.09;84.21
67862;DHT22;54665;51.462;6.698;2023-04-24T06:34:58;10.13;84.12
67862;DHT22;54665;51.462;6.698;2023-04-24T06:37:24;10.06;83.90
67862;DHT22;54665;51.462;6.698;2023-04-24T06:39:49;9.79;84.39
67862;DHT22;54665;51.462;6.698;2023-04-24T06:42:15;9.96;84.56
67862;DHT22;54665;51.462;6.698;2023-04-24T06:44:42;9.93;84.22
67862;DHT22;54665;51.462;6.698;2023-04-24T06:47:11;9.92;84.43
67862;DHT22;54665;51.462;6.698;2023-04-24T06:49:39;10.13;84.04
67862;DHT22;54665;51.462;6.698;2023-04-24T06:52:05;9.95;84.09
67862;DHT22;54665;51.462;6.698;2023-04-24T06:54:32;9.89;84.83
67862;DHT22;54665;51.462;6.698;2023-04-24T06:56:58;10.17;84.08
67862;DHT22;54665;51.462;6.698;2023-04-24T06:59:24;10.34;83.62
67862;DHT22;54665;51.462;6.698;2023-04-24T07:01:50;9.92;83.50
67862;DHT22;54665;51.462;6.698;2023-04-24T07:04:16;9.96;84.04
67862;DHT22;54665;51.462;6.698;2023-04-24T07:06:42;9.90;84.45
67862;DHT22;54665;51.462;6.698;2023-04-24T07:09:08;9.86;84.98
67862;DHT22;54665;51.462;6.698;2023-04-24T07:11:35;9.92;84.06
67862;DHT22;54665;51.462;6.698;2023-04-24T07:14:03;10.27;83.86
67862;DHT22;54665;51.462;6.698;2023-04-24T07:16:28;10.29;81.61
67862;DHT22;54665;51.462;6.698;2023-04-24T07:18:53;10.79;81.39
67862;DHT22;54665;51.462;6.698;2023-04-24T07:21:19;10.29;81.03
67862;DHT22;54665;51.462;6.698;2023-04-24T07:23:44;10.30;81.33
67862;DHT22;54665;51.462;6.698;2023-04-24T07:26:09;9.99;82.34
67862;DHT22;54665;51.462;6.698;2023-04-24T07:28:35;9.78;83.32
67862;DHT22;54665;51.462;6.698;2023-04-24T07:31:00;9.66;82.44
67862;DHT22;54665;51.462;6.698;2023-04-24T07:33:26;9.78;83.81
67862;DHT22;54665;51.462;6.698;2023-04-24T07:35:52;9.93;83.54
67862;DHT22;54665;51.462;6.698;2023-04-24T07:38:18;10.02;83.90
67862;DHT22;54665;51.462;6.698;2023-04-24T07:40:46;9.78;83.39
67862;DHT22;54665;51.462;6.698;2023-04-24T07:43:12;9.82;84.19
67862;DHT22;54665;51.462;6.698;2023-04-24T07:45:37;9.63;84.26
67862;DHT22;54665;51.462;6.698;2023-04-24T07:48:03;9.48;85.10
67862;DHT22;54665;51.462;6.698;2023-04-24T07:50:28;9.44;85.18
67862;DHT22;54665;51.462;6.698;2023-04-24T07:52:54;9.34;84.68
67862;DHT22;54665;51.462;6.698;2023-04-24T07:55:20;9.49;84.86
67862;DHT22;54665;51.462;6.698;2023-04-24T07:57:45;9.51;84.40
67862;DHT22;54665;51.462;6.698;2023-04-24T08:00:11;9.78;83.84
67862;DHT22;54665;51.462;6.698;2023-04-24T08:02:39;9.86;84.05
67862;DHT22;54665;51.462;6.698;2023-04-24T08:05:05;9.62;84.12
67862;DHT22;54665;51.462;6.698;2023-04-24T08:07:31;9.85;84.08
67862;DHT22;54665;51.462;6.698;2023-04-24T08:09:56;9.78;84.56
67862;DHT22;54665;51.462;6.698;2023-04-24T08:12:22;9.58;85.13
67862;DHT22;54665;51.462;6.698;2023-04-24T08:14:47;9.59;84.98
67862;DHT22;54665;51.462;6.698;2023-04-24T08:17:12;9.65;84.96
67862;DHT22;54665;51.462;6.698;2023-04-24T08:19:40;9.66;85.78
67862;DHT22;54665;51.462;6.698;2023-04-24T08:22:08;9.58;85.69
67862;DHT22;54665;51.462;6.698;2023-04-24T08:24:33;9.66;85.26
67862;DHT22;54665;51.462;6.698;2023-04-24T08:26:59;9.71;85.40
67862;DHT22;54665;51.462;6.698;2023-04-24T08:29:24;9.49;86.24
67862;DHT22;54665;51.462;6.698;2023-04-24T08:31:50;9.71;85.57
67862;DHT22;54665;51.462;6.698;2023-04-24T08:34:15;9.93;85.83
67862;DHT22;54665;51.462;6.698;2023-04-24T08:36:41;9.89;86.03
67862;DHT22;54665;51.462;6.698;2023-04-24T08:39:06;10.00;85.17
67862;DHT22;54665;51.462;6.698;2023-04-24T08:41:34;10.06;85.23
67862;DHT22;54665;51.462;6.698;2023-04-24T08:44:01;10.19;85.08
67862;DHT22;54665;51.462;6.698;2023-04-24T08:46:27;10.12;84.24
67862;DHT22;54665;51.462;6.698;2023-04-24T08:48:52;10.21;85.42
67862;DHT22;54665;51.462;6.698;2023-04-24T08:51:18;10.23;85.83
67862;DHT22;54665;51.462;6.698;2023-04-24T08:53:45;10.21;85.36
67862;DHT22;54665;51.462;6.698;2023-04-24T08:56:11;10.19;84.99
67862;DHT22;54665;51.462;6.698;2023-04-24T08:58:37;9.63;85.97
67862;DHT22;54665;51.462;6.698;2023-04-24T09:01:04;9.63;87.08
67862;DHT22;54665;51.462;6.698;2023-04-24T09:03:31;9.74;86.97
67862;DHT22;54665;51.462;6.698;2023-04-24T09:05:57;9.45;87.12
67862;DHT22;54665;51.462;6.698;2023-04-24T09:08:24;9.72;87.02
67862;DHT22;54665;51.462;6.698;2023-04-24T09:10:50;9.63;86.43
67862;DHT22;54665;51.462;6.698;2023-04-24T09:13:16;9.65;85.84
67862;DHT22;54665;51.462;6.698;2023-04-24T09:15:42;9.51;85.89
67862;DHT22;54665;51.462;6.698;2023-04-24T09:18:07;9.79;86.25
67862;DHT22;54665;51.462;6.698;2023-04-24T09:20:33;9.59;85.96
67862;DHT22;54665;51.462;6.698;2023-04-24T09:23:00;9.58;85.93
67862;DHT22;54665;51.462;6.698;2023-04-24T09:25:32;9.46;85.45
67862;DHT22;54665;51.462;6.698;2023-04-24T09:28:03;9.62;85.46
67862;DHT22;54665;51.462;6.698;2023-04-24T09:30:29;9.71;85.00
67862;DHT22;54665;51.462;6.698;2023-04-24T09:33:11;9.55;85.93
67862;DHT22;54665;51.462;6.698;2023-04-24T09:35:36;9.71;86.07
67862;DHT22;54665;51.462;6.698;2023-04-24T09:38:01;9.27;87.12
67862;DHT22;54665;51.462;6.698;2023-04-24T09:40:27;9.34;86.78
67862;DHT22;54665;51.462;6.698;2023-04-24T09:42:54;9.44;86.66
67862;DHT22;54665;51.462;6.698;2023-04-24T09:45:21;9.63;86.82
67862;DHT22;54665;51.462;6.698;2023-04-24T09:47:51;9.54;86.46
67862;DHT22;54665;51.462;6.698;2023-04-24T09:50:17;9.86;85.85
67862;DHT22;54665;51.462;6.698;2023-04-24T09:52:44;9.68;86.10
67862;DHT22;54665;51.462;6.698;2023-04-24T09:55:11;9.83;86.70
67862;DHT22;54665;51.462;6.698;2023-04-24T09:57:47;9.71;86.38
67862;DHT22;54665;51.462;6.698;2023-04-24T10:00:13;9.72;85.51
67862;DHT22;54665;51.462;6.698;2023-04-24T10:02:38;9.72;86.06
67862;DHT22;54665;51.462;6.698;2023-04-24T10:05:04;10.09;85.77
67862;DHT22;54665;51.462;6.698;2023-04-24T10:07:32;10.23;83.88
67862;DHT22;54665;51.462;6.698;2023-04-24T10:09:58;10.06;84.32
67862;DHT22;54665;51.462;6.698;2023-04-24T10:12:24;10.50;84.29
67862;DHT22;54665;51.462;6.698;2023-04-24T10:14:50;10.05;83.00
67862;DHT22;54665;51.462;6.698;2023-04-24T10:17:15;10.10;84.05
67862;DHT22;54665;51.462;6.698;2023-04-24T10:19:43;9.58;83.64
67862;DHT22;54665;51.462;6.698;2023-04-24T10:22:09;9.99;84.52
67862;DHT22;54665;51.462;6.698;2023-04-24T10:24:35;10.09;83.24
67862;DHT22;54665;51.462;6.698;2023-04-24T10:27:02;10.07;83.72
67862;DHT22;54665;51.462;6.698;2023-04-24T10:29:31;9.86;84.14
67862;DHT22;54665;51.462;6.698;2023-04-24T10:31:56;9.68;84.84
67862;DHT22;54665;51.462;6.698;2023-04-24T10:34:22;9.63;85.36
67862;DHT22;54665;51.462;6.698;2023-04-24T10:36:51;10.20;84.28
67862;DHT22;54665;51.462;6.698;2023-04-24T10:39:18;10.38;84.21
67862;DHT22;54665;51.462;6.698;2023-04-24T10:41:44;10.24;84.17
67862;DHT22;54665;51.462;6.698;2023-04-24T10:44:14;10.33;82.81
67862;DHT22;54665;51.462;6.698;2023-04-24T10:46:43;10.27;82.63
67862;DHT22;54665;51.462;6.698;2023-04-24T10:49:09;10.54;83.51
67862;DHT22;54665;51.462;6.698;2023-04-24T10:51:51;10.46;82.77
67862;DHT22;54665;51.462;6.698;2023-04-24T10:54:27;10.87;82.06
67862;DHT22;54665;51.462;6.698;2023-04-24T10:59:45;11.33;80.74
67862;DHT22;54665;51.462;6.698;2023-04-24T11:02:14;11.36;79.15
67862;DHT22;54665;51.462;6.698;2023-04-24T11:04:40;11.81;79.70
67862;DHT22;54665;51.462;6.698;2023-04-24T11:07:06;11.74;80.05
67862;DHT22;54665;51.462;6.698;2023-04-24T11:09:32;11.33;79.67
67862;DHT22;54665;51.462;6.698;2023-04-24T11:12:10;11.07;80.28
67862;DHT22;54665;51.462;6.698;2023-04-24T11:17:36;10.56;81.67
67862;DHT22;54665;51.462;6.698;2023-04-24T11:20:08;10.30;81.80
67862;DHT22;54665;51.462;6.698;2023-04-24T11:22:35;9.95;78.54
67862;DHT22;54665;51.462;6.698;2023-04-24T11:25:02;10.03;79.64
67862;DHT22;54665;51.462;6.698;2023-04-24T11:27:31;10.10;77.91
67862;DHT22;54665;51.462;6.698;2023-04-24T11:34:50;11.35;76.85
67862;DHT22;54665;51.462;6.698;2023-04-24T11:37:16;11.69;75.21
67862;DHT22;54665;51.462;6.698;2023-04-24T11:39:41;11.70;73.97
67862;DHT22;54665;51.462;6.698;2023-04-24T11:42:08;11.59;72.82
67862;DHT22;54665;51.462;6.698;2023-04-24T11:44:34;12.02;74.08
67862;DHT22;54665;51.462;6.698;2023-04-24T11:47:04;11.66;73.39
67862;DHT22;54665;51.462;6.698;2023-04-24T11:49:29;12.10;72.89
67862;DHT22;54665;51.462;6.698;2023-04-24T11:51:55;11.94;71.76
67862;DHT22;54665;51.462;6.698;2023-04-24T11:54:21;11.74;72.05
67862;DHT22;54665;51.462;6.698;2023-04-24T11:56:47;11.80;71.50
67862;DHT22;54665;51.462;6.698;2023-04-24T11:59:13;11.70;71.52
67862;DHT22;54665;51.462;6.698;2023-04-24T12:01:45;11.49;71.83
67862;DHT22;54665;51.462;6.698;2023-04-24T12:04:11;11.60;72.95
67862;DHT22;54665;51.462;6.698;2023-04-24T12:06:37;11.29;73.37
67862;DHT22;54665;51.462;6.698;2023-04-24T12:09:02;11.44;73.73
67862;DHT22;54665;51.462;6.698;2023-04-24T12:11:28;11.33;71.92
67862;DHT22;54665;51.462;6.698;2023-04-24T12:13:53;10.89;70.94
67862;DHT22;54665;51.462;6.698;2023-04-24T12:16:19;10.67;71.79
67862;DHT22;54665;51.462;6.698;2023-04-24T12:18:45;10.88;71.45
67862;DHT22;54665;51.462;6.698;2023-04-24T12:21:21;11.04;70.77
67862;DHT22;54665;51.462;6.698;2023-04-24T12:23:48;11.59;69.90
67862;DHT22;54665;51.462;6.698;2023-04-24T12:26:20;11.52;68.69
67862;DHT22;54665;51.462;6.698;2023-04-24T12:28:48;11.71;68.85
67862;DHT22;54665;51.462;6.698;2023-04-24T12:31:15;11.52;68.88
67862;DHT22;54665;51.462;6.698;2023-04-24T12:33:41;11.80;68.47
67862;DHT22;54665;51.462;6.698;2023-04-24T12:36:10;12.07;66.88
67862;DHT22;54665;51.462;6.698;2023-04-24T12:38:35;12.14;66.23
67862;DHT22;54665;51.462;6.698;2023-04-24T12:41:07;12.45;65.14
67862;DHT22;54665;51.462;6.698;2023-04-24T12:43:33;12.65;64.05
67862;DHT22;54665;51.462;6.698;2023-04-24T12:45:59;12.76;63.01
67862;DHT22;54665;51.462;6.698;2023-04-24T12:48:28;13.36;64.28
67862;DHT22;54665;51.462;6.698;2023-04-24T12:50:54;12.66;63.69
67862;DHT22;54665;51.462;6.698;2023-04-24T12:53:20;12.99;62.24
67862;DHT22;54665;51.462;6.698;2023-04-24T12:55:46;12.61;62.87
67862;DHT22;54665;51.462;6.698;2023-04-24T12:58:17;12.96;63.74
67862;DHT22;54665;51.462;6.698;2023-04-24T13:00:43;12.61;63.03
67862;DHT22;54665;51.462;6.698;2023-04-24T13:03:11;12.22;63.15
67862;DHT22;54665;51.462;6.698;2023-04-24T13:05:36;12.51;63.83
67862;DHT22;54665;51.462;6.698;2023-04-24T13:08:02;12.75;62.83
67862;DHT22;54665;51.462;6.698;2023-04-24T13:10:28;12.78;62.87
67862;DHT22;54665;51.462;6.698;2023-04-24T13:12:53;12.93;63.42
67862;DHT22;54665;51.462;6.698;2023-04-24T13:15:19;12.68;62.65
67862;DHT22;54665;51.462;6.698;2023-04-24T13:17:44;12.35;64.28
67862;DHT22;54665;51.462;6.698;2023-04-24T13:20:10;12.05;65.02
67862;DHT22;54665;51.462;6.698;2023-04-24T13:22:35;11.95;65.06
67862;DHT22;54665;51.462;6.698;2023-04-24T13:25:01;11.86;64.99
67862;DHT22;54665;51.462;6.698;2023-04-24T13:27:27;11.87;63.98
67862;DHT22;54665;51.462;6.698;2023-04-24T13:29:52;11.97;65.39
67862;DHT22;54665;51.462;6.698;2023-04-24T13:32:18;12.00;66.27
67862;DHT22;54665;51.462;6.698;2023-04-24T13:34:43;12.08;64.37
67862;DHT22;54665;51.462;6.698;2023-04-24T13:37:09;12.28;64.37
67862;DHT22;54665;51.462;6.698;2023-04-24T13:39:35;12.35;64.31
67862;DHT22;54665;51.462;6.698;2023-04-24T13:42:00;12.32;64.04
67862;DHT22;54665;51.462;6.698;2023-04-24T13:44:26;12.72;63.48
67862;DHT22;54665;51.462;6.698;2023-04-24T13:46:53;12.61;63.29
67862;DHT22;54665;51.462;6.698;2023-04-24T13:49:20;13.19;62.86
67862;DHT22;54665;51.462;6.698;2023-04-24T13:51:45;13.48;60.31
67862;DHT22;54665;51.462;6.698;2023-04-24T13:54:11;13.78;60.00
67862;DHT22;54665;51.462;6.698;2023-04-24T13:56:37;13.64;61.39
67862;DHT22;54665;51.462;6.698;2023-04-24T13:59:02;13.40;60.69
67862;DHT22;54665;51.462;6.698;2023-04-24T14:01:27;13.86;61.94
67862;DHT22;54665;51.462;6.698;2023-04-24T14:03:54;13.81;60.12
67862;DHT22;54665;51.462;6.698;2023-04-24T14:06:20;13.36;61.58
67862;DHT22;54665;51.462;6.698;2023-04-24T14:08:47;13.44;61.36
67862;DHT22;54665;51.462;6.698;2023-04-24T14:11:12;12.83;61.83
67862;DHT22;54665;51.462;6.698;2023-04-24T14:13:38;12.88;61.94
67862;DHT22;54665;51.462;6.698;2023-04-24T14:16:04;12.82;62.68
67862;DHT22;54665;51.462;6.698;2023-04-24T14:18:30;12.46;62.77
67862;DHT22;54665;51.462;6.698;2023-04-24T14:20:55;12.01;63.04
67862;DHT22;54665;51.462;6.698;2023-04-24T14:23:20;12.28;63.29
67862;DHT22;54665;51.462;6.698;2023-04-24T14:25:46;11.94;63.54
67862;DHT22;54665;51.462;6.698;2023-04-24T14:28:16;11.69;64.88
67862;DHT22;54665;51.462;6.698;2023-04-24T14:30:41;11.39;66.78
67862;DHT22;54665;51.462;6.698;2023-04-24T14:33:07;10.85;70.93
67862;DHT22;54665;51.462;6.698;2023-04-24T14:35:32;10.72;72.99
67862;DHT22;54665;51.462;6.698;2023-04-24T14:37:59;10.85;74.05
67862;DHT22;54665;51.462;6.698;2023-04-24T14:40:24;10.95;74.25
67862;DHT22;54665;51.462;6.698;2023-04-24T14:42:50;10.60;74.24
67862;DHT22;54665;51.462;6.698;2023-04-24T14:45:15;10.68;73.34
67862;DHT22;54665;51.462;6.698;2023-04-24T14:47:41;11.04;73.21
67862;DHT22;54665;51.462;6.698;2023-04-24T14:50:08;11.04;72.89
67862;DHT22;54665;51.462;6.698;2023-04-24T14:52:34;11.40;73.13
67862;DHT22;54665;51.462;6.698;2023-04-24T14:55:00;11.63;71.63
67862;DHT22;54665;51.462;6.698;2023-04-24T14:57:26;11.59;71.03
67862;DHT22;54665;51.462;6.698;2023-04-24T14:59:51;11.89;70.19
67862;DHT22;54665;51.462;6.698;2023-04-24T15:02:16;12.16;69.08
67862;DHT22;54665;51.462;6.698;2023-04-24T15:04:42;12.75;66.91
67862;DHT22;54665;51.462;6.698;2023-04-24T15:07:07;12.76;65.74
67862;DHT22;54665;51.462;6.698;2023-04-24T15:09:32;12.35;64.98
67862;DHT22;54665;51.462;6.698;2023-04-24T15:11:58;12.35;65.66
67862;DHT22;54665;51.462;6.698;2023-04-24T15:14:24;12.27;66.72
67862;DHT22;54665;51.462;6.698;2023-04-24T15:16:49;12.30;65.46
67862;DHT22;54665;51.462;6.698;2023-04-24T15:19:15;12.39;65.25
67862;DHT22;54665;51.462;6.698;2023-04-24T15:21:40;12.41;65.42
67862;DHT22;54665;51.462;6.698;2023-04-24T15:24:07;12.49;65.09
67862;DHT22;54665;51.462;6.698;2023-04-24T15:26:33;12.59;65.52
67862;DHT22;54665;51.462;6.698;2023-04-24T15:28:58;12.58;65.46
67862;DHT22;54665;51.462;6.698;2023-04-24T15:31:24;12.35;65.25
67862;DHT22;54665;51.462;6.698;2023-04-24T15:33:50;12.13;64.82
67862;DHT22;54665;51.462;6.698;2023-04-24T15:36:16;12.24;64.44
67862;DHT22;54665;51.462;6.698;2023-04-24T15:38:42;12.18;65.63
67862;DHT22;54665;51.462;6.698;2023-04-24T15:41:08;12.27;65.04
67862;DHT22;54665;51.462;6.698;2023-04-24T15:43:35;12.05;64.47